Regional Weather

 

KMKL - Jackson, TN, USA
Distance from station: WNW 50mi, 81km
Updated: Fri, Oct-15-2021 6:54pm CDT
Heavy thunderstorm, Rain, Mist, Mostly cloudy
Heavy thunderstorm, Rain, Mist, Mostly cloudy
 Wind from ESE
Wind: ESE 7 mph , 11 km/h
Temperature: 68°F , 20°C
Dew Point: 66°F , 19°C
Humidity: 94%
Barometer: 29.88 inHg , 1011.9 hPa
Summary: Heavy thunderstorm, Rain, Mist
Clouds: Mostly cloudy
Visibility: 1 mile , 2 km
Cloud details: Few Clouds 900 ft
Mostly cloudy 1700 ft
Mostly cloudy 5000 ft
2021/10/15 23:54 KMKL 152354Z AUTO 12006KT 1SM +TSRA BR FEW009 BKN017 BKN050 20/19 A2988 RMK AO2 LTG DSNT N AND NE AND SW P0000 T02000189
KMEM - Memphis, TN, USA
Distance from station: W 108mi, 173km
Updated: Fri, Oct-15-2021 6:54pm CDT
Thunderstorm rain, Mist, Overcast
Thunderstorm rain, Mist, Overcast
 Wind from NW
Wind: NW 10 mph , 17 km/h, Gust: 20 mph , 31 km/h
Temperature: 70°F , 21°C
Dew Point: 66°F , 19°C
Humidity: 88%
Barometer: 29.86 inHg , 1011.2 hPa
Summary: Thunderstorm rain, Mist
Clouds: Overcast
Visibility: 3 miles , 5 km
Cloud details: Partly cloudy 700 ft
Mostly cloudy 1600 ft
Overcast 2500 ft
2021/10/15 23:54 KMEM 152354Z 31009G17KT 3SM TSRA BR SCT007CB BKN016 OVC025 21/19 A2986 RMK AO2 PK WND 31030/2334 SFC VIS 4 LTG DSNT ALQDS RAB23 TSB23 SLP108 OCNL LTGIC OHD TS OHD MOV E P0031 60032 T02060194 10289 20206 53007
 
KBNA - Nashville, TN, USA
Distance from station: NE 97mi, 157km
Updated: Fri, Oct-15-2021 6:53pm CDT
Mostly cloudy
Mostly cloudy
 Wind from calm
Wind: Calm
Temperature: 75°F , 24°C
Dew Point: 64°F , 18°C
Humidity: 69%
Barometer: 29.88 inHg , 1011.9 hPa
Clouds: Mostly cloudy
Visibility: 10 miles , 16 km
Cloud details: Few Clouds 4500 ft
Mostly cloudy 7000 ft
Mostly cloudy 11000 ft
Mostly cloudy 13000 ft
2021/10/15 23:53 KBNA 152353Z 00000KT 10SM FEW045 BKN070 BKN110 BKN130 24/18 A2988 RMK AO2 LTG DSNT N AND NW SLP112 CONS LTGICCC DSNT NW-N CB DSNT NW-N T02440183 10272 20233 53000
KCKV - Clarksville, TN, USA
Distance from station: NNE 99mi, 159km
Updated: Fri, Oct-15-2021 6:52pm CDT
Few Clouds
Few Clouds
 Wind from SSE
Wind: SSE 3 mph , 6 km/h
Temperature: 68°F , 20°C
Dew Point: 64°F , 18°C
Humidity: 88%
Barometer: 29.84 inHg , 1010.5 hPa
Clouds: Few Clouds
Visibility: 10 miles , 16 km
Cloud details: Few Clouds 11000 ft
2021/10/15 23:52 KCKV 152352Z AUTO 15003KT 10SM FEW110 20/18 A2984 RMK AO2 LTG DSNT E AND SE RAE06 SLP100 P0000 60001 T02000183 10272 20194 58001
 
KPAH - Paducah, KY, USA
Distance from station: NNW 128mi, 205km
Updated: Fri, Oct-15-2021 6:53pm CDT
Light rain, Overcast
Light rain, Overcast
 Wind from W
Wind: W 21 mph , 33 km/h
Temperature: 70°F , 21°C
Dew Point: 63°F , 17°C
Humidity: 78%
Barometer: 29.83 inHg , 1010.2 hPa
Summary: Light rain
Clouds: Overcast
Visibility: 6 miles , 10 km
Cloud details: Few Clouds 2100 ft
Partly cloudy 7000 ft
Overcast 9500 ft
2021/10/15 23:53 KPAH 152353Z 27018KT 6SM -RA FEW021 SCT070 OVC095 21/17 A2983 RMK AO2 RAB48 SLP098 P0001 60005 T02060167 10267 20206 53002
KCHA - Chattanooga, TN, USA
Distance from station: E 165mi, 265km
Updated: Fri, Oct-15-2021 6:53pm CDT
Mostly cloudy
Mostly cloudy
 Wind from calm
Wind: Calm
Temperature: 75°F , 24°C
Dew Point: 72°F , 22°C
Humidity: 89%
Barometer: 29.91 inHg , 1012.9 hPa
Clouds: Mostly cloudy
Visibility: 10 miles , 16 km
Cloud details: Few Clouds 4600 ft
Mostly cloudy 6000 ft
Mostly cloudy 8000 ft
Mostly cloudy 25000 ft
2021/10/15 23:53 KCHA 152353Z 00000KT 10SM FEW046 BKN060 BKN080 BKN250 24/22 A2991 RMK AO2 RAE10 SLP121 P0012 60012 T02390222 10289 20239 58005 $
 
KTYS - Knoxville, TN, USA
Distance from station: E 234mi, 377km
Updated: Fri, Oct-15-2021 5:53pm CDT
Few Clouds
Few Clouds
 Wind from SSW
Wind: SSW 7 mph , 11 km/h
Temperature: 75°F , 24°C
Dew Point: 66°F , 19°C
Humidity: 74%
Barometer: 29.90 inHg , 1012.5 hPa
Clouds: Few Clouds
Visibility: 10 miles , 16 km
Cloud details: Few Clouds 7000 ft
2021/10/15 22:53 KTYS 152253Z 21006KT 10SM FEW070 24/19 A2990 RMK A02 SLP117 T02390189
KLIT - Little Rock, AR, USA
Distance from station: W 240mi, 386km
Updated: Fri, Oct-15-2021 6:53pm CDT
Overcast
Overcast
 Wind from NW
Wind: NW 26 mph , 43 km/h, Gust: 37 mph , 59 km/h
Temperature: 70°F , 21°C
Dew Point: 63°F , 17°C
Humidity: 78%
Barometer: 29.96 inHg , 1014.6 hPa
Clouds: Overcast
Visibility: 10 miles , 16 km
Cloud details: Mostly cloudy 1600 ft
Mostly cloudy 2600 ft
Overcast 3900 ft
2021/10/15 23:53 KLIT 152353Z 31023G32KT 10SM BKN016 BKN026 OVC039 21/17 A2996 RMK AO2 PK WND 30032/2350 PRESRR SLP144 60031 T02060167 10289 20206 52035

Refresh Page for latest data.